x

Capers Nearshore (cap 2) (41029) Weather Station

9:08pm - Mon 27th Apr 2015 All times are EDT. -4 hours from GMT.

  • Wind
    9mph, 11mph gusts
  • Air Temp 66°f
  • Sea Pressure 1011.5mb
  • Capers Nearshore (cap 2)
  • Capers Nearshore (cap 2)

More Historic Weather Station data

Upgrade to MSW Pro to gain access to the past 30 days of data for over 8000 Wavebouys and Weather Stations around the globe.

Join Pro

Comparision Forecast

View Surf forecast
   
Mon 04/27 9:08pm 9 11 mph 1011.5mb 66f
8:08pm 4 9 mph 1010.3mb 68f
7:08pm 11 16 mph 1009.9mb 69f
6:08pm 2 7 mph 1009.9mb 66f
5:08pm 7 9 mph 1009.4mb 64f
4:08pm 11 13 mph 1010mb 64f
3:08pm 9 13 mph 1009.5mb 64f
2:08pm 7 11 mph 1009.4mb 64f
1:08pm 9 13 mph 1010.2mb 63f
12:08pm 7 9 mph 1010.9mb 62f
11:08am 9 13 mph 1010.8mb 59f
10:08am 7 11 mph 1010.8mb 57f
9:08am 9 13 mph 1010.1mb 56f
8:08am 11 16 mph 1009.3mb 56f
7:08am 16 22 mph 1008.9mb 56f
6:08am 16 22 mph 1007.2mb 56f
5:08am 18 22 mph 1006.7mb 57f
4:08am 16 22 mph 1006.7mb 58f
3:08am 18 22 mph 1006.8mb 58f
2:08am 18 25 mph 1006.9mb 59f
1:08am 20 27 mph 1007.5mb 60f
12:08am 20 27 mph 1006.8mb 62f
Sun 04/26 11:08pm 22 27 mph 1006.4mb 64f
10:08pm 22 31 mph 1005.4mb 66f
9:08pm 22 31 mph 1004.6mb 67f
8:08pm 25 36 mph 1003.8mb 67f
7:08pm 22 31 mph 1002.8mb 68f
6:08pm 18 22 mph 1001.7mb 73f
5:08pm 18 22 mph 1001.5mb 73f
4:08pm 18 25 mph 1001.8mb 73f
3:08pm 18 22 mph 1002.4mb 73f
2:08pm 16 20 mph 1002.6mb 72f
1:08pm 11 13 mph 1003.2mb 72f
12:08pm 11 16 mph 1003.3mb 72f
11:08am 13 16 mph 1003.6mb 72f
10:08am 18 20 mph 1003.6mb 71f
9:08am 18 25 mph 1003.5mb 70f
8:08am 18 22 mph 1003.5mb 69f
7:08am 18 27 mph 1003mb 69f
6:08am 20 27 mph 1002.6mb 69f
5:08am 20 25 mph 1002.3mb 69f
4:08am 20 27 mph 1002.2mb 69f
3:08am 20 27 mph 1002.2mb 69f
2:08am 20 29 mph 1002.4mb 69f
1:08am 18 25 mph 1003.9mb 69f
12:08am 20 27 mph 1004mb 70f
Sat 04/25 11:08pm 25 34 mph 1003.8mb 69f
9:08pm 18 25 mph 1004.2mb 70f
8:08pm 18 22 mph 1004.4mb 70f
7:08pm 16 20 mph 1004.7mb 70f
5:08pm 20 29 mph 1005.9mb 70f
4:08pm 20 29 mph 1006.9mb 70f
3:08pm 16 25 mph 1008mb 69f
2:08pm 13 20 mph 1008.9mb 69f
1:08pm 20 27 mph - 68f
12:08pm 16 20 mph - 69f
11:08am 9 11 mph - 69f
10:08am 7 11 mph - 69f
9:08am 4 7 mph - 69f
7:08am 4 7 mph - 69f
6:08am 9 11 mph - 69f
5:08am 9 11 mph - 69f
4:08am 11 13 mph - 68f
3:08am 11 16 mph - 68f
2:08am 13 16 mph - 67f
1:08am 11 16 mph - 67f
12:08am 11 13 mph - 66f
Fri 04/24 11:08pm 11 16 mph - 66f
10:08pm 13 16 mph - 65f
9:08pm 11 16 mph - 65f
8:08pm 9 11 mph - 64f
7:08pm 9 13 mph - 64f
6:08pm 9 11 mph - 64f
5:08pm 11 13 mph - 64f
4:08pm 9 13 mph - 63f
3:08pm 11 16 mph - 62f
2:08pm 13 18 mph - 62f
1:08pm 13 20 mph - 61f
12:08pm 16 22 mph - 61f
11:08am 18 22 mph - 62f
10:08am 20 27 mph - 61f
9:08am 22 29 mph - 60f
8:08am 25 31 mph - 60f
7:08am 25 31 mph - 61f
6:08am 22 31 mph - 62f